sensor_id;sensor_type;location;lat;lon;timestamp;P1;durP1;ratioP1;P2;durP2;ratioP2
2624;SDS011;1322;53.256;10.386;2022-09-30T00:01:31;6.80;;;5.40;;
2624;SDS011;1322;53.256;10.386;2022-09-30T00:03:58;8.03;;;5.63;;
2624;SDS011;1322;53.256;10.386;2022-09-30T00:06:24;8.20;;;6.30;;
2624;SDS011;1322;53.256;10.386;2022-09-30T00:08:51;6.73;;;6.07;;
2624;SDS011;1322;53.256;10.386;2022-09-30T00:11:21;6.83;;;6.13;;
2624;SDS011;1322;53.256;10.386;2022-09-30T00:13:51;6.20;;;5.33;;
2624;SDS011;1322;53.256;10.386;2022-09-30T00:16:18;6.70;;;6.03;;
2624;SDS011;1322;53.256;10.386;2022-09-30T00:18:45;10.83;;;6.30;;
2624;SDS011;1322;53.256;10.386;2022-09-30T00:21:11;7.40;;;6.10;;
2624;SDS011;1322;53.256;10.386;2022-09-30T00:23:39;8.70;;;6.13;;
2624;SDS011;1322;53.256;10.386;2022-09-30T00:26:06;5.77;;;5.20;;
2624;SDS011;1322;53.256;10.386;2022-09-30T00:28:36;8.10;;;5.70;;
2624;SDS011;1322;53.256;10.386;2022-09-30T00:31:03;6.43;;;5.63;;
2624;SDS011;1322;53.256;10.386;2022-09-30T00:33:31;6.80;;;5.43;;
2624;SDS011;1322;53.256;10.386;2022-09-30T00:35:58;5.93;;;5.33;;
2624;SDS011;1322;53.256;10.386;2022-09-30T00:38:24;9.73;;;5.43;;
2624;SDS011;1322;53.256;10.386;2022-09-30T00:40:49;6.27;;;5.67;;
2624;SDS011;1322;53.256;10.386;2022-09-30T00:43:20;7.23;;;5.83;;
2624;SDS011;1322;53.256;10.386;2022-09-30T00:46:04;7.40;;;5.30;;
2624;SDS011;1322;53.256;10.386;2022-09-30T00:48:37;7.33;;;6.63;;
2624;SDS011;1322;53.256;10.386;2022-09-30T00:51:03;5.80;;;5.03;;
2624;SDS011;1322;53.256;10.386;2022-09-30T00:53:36;5.90;;;5.30;;
2624;SDS011;1322;53.256;10.386;2022-09-30T00:56:33;7.60;;;6.33;;
2624;SDS011;1322;53.256;10.386;2022-09-30T00:59:09;8.23;;;5.93;;
2624;SDS011;1322;53.256;10.386;2022-09-30T01:01:44;6.57;;;5.83;;
2624;SDS011;1322;53.256;10.386;2022-09-30T01:04:22;7.03;;;5.30;;
2624;SDS011;1322;53.256;10.386;2022-09-30T01:06:50;5.57;;;4.90;;
2624;SDS011;1322;53.256;10.386;2022-09-30T01:09:16;7.77;;;6.20;;
2624;SDS011;1322;53.256;10.386;2022-09-30T01:11:43;7.73;;;5.40;;
2624;SDS011;1322;53.256;10.386;2022-09-30T01:14:14;6.93;;;5.57;;
2624;SDS011;1322;53.256;10.386;2022-09-30T01:22:13;6.43;;;5.53;;
2624;SDS011;1322;53.256;10.386;2022-09-30T01:28:41;8.07;;;6.17;;
2624;SDS011;1322;53.256;10.386;2022-09-30T01:39:00;8.83;;;5.70;;
2624;SDS011;1322;53.256;10.386;2022-09-30T01:41:39;5.63;;;4.93;;
2624;SDS011;1322;53.256;10.386;2022-09-30T01:44:27;5.93;;;5.33;;
2624;SDS011;1322;53.256;10.386;2022-09-30T01:49:41;6.80;;;6.20;;
2624;SDS011;1322;53.256;10.386;2022-09-30T01:52:19;6.07;;;5.47;;
2624;SDS011;1322;53.256;10.386;2022-09-30T01:55:01;6.90;;;6.20;;
2624;SDS011;1322;53.256;10.386;2022-09-30T01:57:41;6.63;;;5.93;;
2624;SDS011;1322;53.256;10.386;2022-09-30T02:00:09;6.60;;;5.40;;
2624;SDS011;1322;53.256;10.386;2022-09-30T02:02:44;6.10;;;5.50;;
2624;SDS011;1322;53.256;10.386;2022-09-30T02:05:15;6.57;;;5.87;;
2624;SDS011;1322;53.256;10.386;2022-09-30T02:07:53;6.17;;;5.53;;
2624;SDS011;1322;53.256;10.386;2022-09-30T02:10:32;5.60;;;5.10;;
2624;SDS011;1322;53.256;10.386;2022-09-30T02:13:06;6.17;;;5.33;;
2624;SDS011;1322;53.256;10.386;2022-09-30T02:15:38;5.57;;;5.07;;
2624;SDS011;1322;53.256;10.386;2022-09-30T02:18:42;7.60;;;6.07;;
2624;SDS011;1322;53.256;10.386;2022-09-30T02:21:04;7.60;;;5.50;;
2624;SDS011;1322;53.256;10.386;2022-09-30T02:23:32;13.73;;;6.40;;
2624;SDS011;1322;53.256;10.386;2022-09-30T02:26:07;6.17;;;5.10;;
2624;SDS011;1322;53.256;10.386;2022-09-30T02:28:41;5.60;;;4.90;;
2624;SDS011;1322;53.256;10.386;2022-09-30T02:31:09;6.23;;;4.77;;
2624;SDS011;1322;53.256;10.386;2022-09-30T02:33:39;6.13;;;4.50;;
2624;SDS011;1322;53.256;10.386;2022-09-30T02:36:14;7.60;;;5.40;;
2624;SDS011;1322;53.256;10.386;2022-09-30T02:38:50;8.10;;;6.83;;
2624;SDS011;1322;53.256;10.386;2022-09-30T02:41:37;6.30;;;5.33;;
2624;SDS011;1322;53.256;10.386;2022-09-30T02:44:08;5.87;;;5.27;;
2624;SDS011;1322;53.256;10.386;2022-09-30T02:49:26;7.10;;;6.40;;
2624;SDS011;1322;53.256;10.386;2022-09-30T02:57:41;8.07;;;5.67;;
2624;SDS011;1322;53.256;10.386;2022-09-30T03:00:19;7.37;;;5.87;;
2624;SDS011;1322;53.256;10.386;2022-09-30T03:02:45;7.03;;;6.33;;
2624;SDS011;1322;53.256;10.386;2022-09-30T03:05:11;8.10;;;6.60;;
2624;SDS011;1322;53.256;10.386;2022-09-30T03:07:36;7.70;;;6.90;;
2624;SDS011;1322;53.256;10.386;2022-09-30T03:10:16;6.20;;;5.57;;
2624;SDS011;1322;53.256;10.386;2022-09-30T03:24:26;7.73;;;6.50;;
2624;SDS011;1322;53.256;10.386;2022-09-30T03:27:07;11.10;;;6.67;;
2624;SDS011;1322;53.256;10.386;2022-09-30T03:38:00;10.50;;;6.73;;
2624;SDS011;1322;53.256;10.386;2022-09-30T03:40:42;7.03;;;6.30;;
2624;SDS011;1322;53.256;10.386;2022-09-30T03:43:46;6.57;;;5.87;;
2624;SDS011;1322;53.256;10.386;2022-09-30T03:49:12;10.03;;;7.27;;
2624;SDS011;1322;53.256;10.386;2022-09-30T03:51:41;7.20;;;6.50;;
2624;SDS011;1322;53.256;10.386;2022-09-30T03:54:08;7.50;;;6.30;;
2624;SDS011;1322;53.256;10.386;2022-09-30T03:56:36;10.63;;;7.33;;
2624;SDS011;1322;53.256;10.386;2022-09-30T03:59:08;15.47;;;9.07;;
2624;SDS011;1322;53.256;10.386;2022-09-30T04:01:36;9.40;;;8.50;;
2624;SDS011;1322;53.256;10.386;2022-09-30T04:04:03;10.23;;;7.70;;
2624;SDS011;1322;53.256;10.386;2022-09-30T04:06:28;10.77;;;7.30;;
2624;SDS011;1322;53.256;10.386;2022-09-30T04:08:54;7.73;;;6.93;;
2624;SDS011;1322;53.256;10.386;2022-09-30T04:11:19;12.83;;;7.67;;
2624;SDS011;1322;53.256;10.386;2022-09-30T04:13:45;7.53;;;6.60;;
2624;SDS011;1322;53.256;10.386;2022-09-30T04:16:10;8.93;;;6.80;;
2624;SDS011;1322;53.256;10.386;2022-09-30T04:18:36;10.37;;;8.20;;
2624;SDS011;1322;53.256;10.386;2022-09-30T04:21:06;9.03;;;7.10;;
2624;SDS011;1322;53.256;10.386;2022-09-30T04:23:34;7.80;;;7.00;;
2624;SDS011;1322;53.256;10.386;2022-09-30T04:26:04;8.57;;;7.33;;
2624;SDS011;1322;53.256;10.386;2022-09-30T04:28:32;8.03;;;7.23;;
2624;SDS011;1322;53.256;10.386;2022-09-30T04:30:58;10.10;;;7.80;;
2624;SDS011;1322;53.256;10.386;2022-09-30T04:33:25;12.63;;;7.13;;
2624;SDS011;1322;53.256;10.386;2022-09-30T04:35:55;11.03;;;6.87;;
2624;SDS011;1322;53.256;10.386;2022-09-30T04:38:22;8.53;;;7.17;;
2624;SDS011;1322;53.256;10.386;2022-09-30T04:40:49;9.47;;;7.67;;
2624;SDS011;1322;53.256;10.386;2022-09-30T04:43:16;14.30;;;7.40;;
2624;SDS011;1322;53.256;10.386;2022-09-30T04:45:43;11.03;;;8.10;;
2624;SDS011;1322;53.256;10.386;2022-09-30T04:48:10;9.90;;;7.50;;
2624;SDS011;1322;53.256;10.386;2022-09-30T04:50:39;10.80;;;7.27;;
2624;SDS011;1322;53.256;10.386;2022-09-30T04:53:05;9.60;;;7.27;;
2624;SDS011;1322;53.256;10.386;2022-09-30T04:55:31;9.50;;;7.77;;
2624;SDS011;1322;53.256;10.386;2022-09-30T04:57:57;9.60;;;7.83;;
2624;SDS011;1322;53.256;10.386;2022-09-30T05:00:23;10.93;;;7.93;;
2624;SDS011;1322;53.256;10.386;2022-09-30T05:02:49;8.97;;;7.57;;
2624;SDS011;1322;53.256;10.386;2022-09-30T05:05:15;9.03;;;7.50;;
2624;SDS011;1322;53.256;10.386;2022-09-30T05:07:41;8.87;;;7.43;;
2624;SDS011;1322;53.256;10.386;2022-09-30T05:10:08;11.37;;;8.03;;
2624;SDS011;1322;53.256;10.386;2022-09-30T05:12:35;8.93;;;7.80;;
2624;SDS011;1322;53.256;10.386;2022-09-30T05:15:02;10.97;;;8.90;;
2624;SDS011;1322;53.256;10.386;2022-09-30T05:17:29;10.53;;;8.40;;
2624;SDS011;1322;53.256;10.386;2022-09-30T05:19:55;9.17;;;8.17;;
2624;SDS011;1322;53.256;10.386;2022-09-30T05:22:21;9.00;;;8.10;;
2624;SDS011;1322;53.256;10.386;2022-09-30T05:24:48;9.90;;;8.30;;
2624;SDS011;1322;53.256;10.386;2022-09-30T05:27:15;9.87;;;8.87;;
2624;SDS011;1322;53.256;10.386;2022-09-30T05:29:42;10.30;;;8.90;;
2624;SDS011;1322;53.256;10.386;2022-09-30T05:32:08;8.53;;;7.53;;
2624;SDS011;1322;53.256;10.386;2022-09-30T05:34:33;13.83;;;8.60;;
2624;SDS011;1322;53.256;10.386;2022-09-30T05:36:59;10.50;;;8.80;;
2624;SDS011;1322;53.256;10.386;2022-09-30T05:39:24;12.00;;;9.53;;
2624;SDS011;1322;53.256;10.386;2022-09-30T05:41:50;12.33;;;8.90;;
2624;SDS011;1322;53.256;10.386;2022-09-30T05:44:16;9.70;;;8.50;;
2624;SDS011;1322;53.256;10.386;2022-09-30T05:46:42;9.83;;;8.37;;
2624;SDS011;1322;53.256;10.386;2022-09-30T05:49:08;11.57;;;9.10;;
2624;SDS011;1322;53.256;10.386;2022-09-30T05:51:33;12.43;;;8.57;;
2624;SDS011;1322;53.256;10.386;2022-09-30T05:54:00;10.10;;;8.60;;
2624;SDS011;1322;53.256;10.386;2022-09-30T05:56:26;14.83;;;9.83;;
2624;SDS011;1322;53.256;10.386;2022-09-30T05:58:51;9.90;;;8.73;;
2624;SDS011;1322;53.256;10.386;2022-09-30T06:01:17;16.27;;;9.37;;
2624;SDS011;1322;53.256;10.386;2022-09-30T06:03:43;14.03;;;9.27;;
2624;SDS011;1322;53.256;10.386;2022-09-30T06:06:10;9.80;;;8.80;;
2624;SDS011;1322;53.256;10.386;2022-09-30T06:08:36;10.97;;;9.00;;
2624;SDS011;1322;53.256;10.386;2022-09-30T06:11:06;8.87;;;7.97;;
2624;SDS011;1322;53.256;10.386;2022-09-30T06:13:35;9.00;;;8.10;;
2624;SDS011;1322;53.256;10.386;2022-09-30T06:16:01;9.37;;;8.40;;
2624;SDS011;1322;53.256;10.386;2022-09-30T06:18:27;10.30;;;9.07;;
2624;SDS011;1322;53.256;10.386;2022-09-30T06:20:55;9.80;;;8.40;;
2624;SDS011;1322;53.256;10.386;2022-09-30T06:23:22;9.80;;;8.80;;
2624;SDS011;1322;53.256;10.386;2022-09-30T06:25:51;11.40;;;10.30;;
2624;SDS011;1322;53.256;10.386;2022-09-30T06:28:18;11.77;;;9.50;;
2624;SDS011;1322;53.256;10.386;2022-09-30T06:30:44;12.67;;;10.13;;
2624;SDS011;1322;53.256;10.386;2022-09-30T06:33:12;12.70;;;10.53;;
2624;SDS011;1322;53.256;10.386;2022-09-30T06:35:38;13.30;;;10.80;;
2624;SDS011;1322;53.256;10.386;2022-09-30T06:38:07;11.37;;;9.60;;
2624;SDS011;1322;53.256;10.386;2022-09-30T06:40:34;15.73;;;9.10;;
2624;SDS011;1322;53.256;10.386;2022-09-30T06:43:00;19.63;;;10.20;;
2624;SDS011;1322;53.256;10.386;2022-09-30T06:45:27;12.33;;;10.10;;
2624;SDS011;1322;53.256;10.386;2022-09-30T06:47:57;12.97;;;10.40;;
2624;SDS011;1322;53.256;10.386;2022-09-30T06:50:23;10.80;;;9.70;;
2624;SDS011;1322;53.256;10.386;2022-09-30T06:52:49;12.43;;;9.17;;
2624;SDS011;1322;53.256;10.386;2022-09-30T06:55:15;12.00;;;9.30;;
2624;SDS011;1322;53.256;10.386;2022-09-30T06:57:48;13.00;;;9.90;;
2624;SDS011;1322;53.256;10.386;2022-09-30T07:00:14;11.10;;;9.33;;
2624;SDS011;1322;53.256;10.386;2022-09-30T07:02:41;11.00;;;9.33;;
2624;SDS011;1322;53.256;10.386;2022-09-30T07:05:06;14.03;;;10.20;;
2624;SDS011;1322;53.256;10.386;2022-09-30T07:07:33;11.07;;;9.83;;
2624;SDS011;1322;53.256;10.386;2022-09-30T07:09:59;14.10;;;10.90;;
2624;SDS011;1322;53.256;10.386;2022-09-30T07:12:25;14.07;;;12.57;;
2624;SDS011;1322;53.256;10.386;2022-09-30T07:14:51;12.87;;;11.03;;
2624;SDS011;1322;53.256;10.386;2022-09-30T07:17:17;10.90;;;9.77;;
2624;SDS011;1322;53.256;10.386;2022-09-30T07:19:43;12.50;;;9.90;;
2624;SDS011;1322;53.256;10.386;2022-09-30T07:22:08;11.43;;;10.23;;
2624;SDS011;1322;53.256;10.386;2022-09-30T07:24:57;13.63;;;10.97;;
2624;SDS011;1322;53.256;10.386;2022-09-30T07:27:27;12.73;;;10.73;;
2624;SDS011;1322;53.256;10.386;2022-09-30T07:29:55;11.30;;;9.80;;
2624;SDS011;1322;53.256;10.386;2022-09-30T07:32:21;13.50;;;10.13;;
2624;SDS011;1322;53.256;10.386;2022-09-30T07:34:47;12.70;;;11.40;;
2624;SDS011;1322;53.256;10.386;2022-09-30T07:37:14;13.70;;;11.67;;
2624;SDS011;1322;53.256;10.386;2022-09-30T07:39:42;19.10;;;12.10;;
2624;SDS011;1322;53.256;10.386;2022-09-30T07:42:10;14.90;;;13.30;;
2624;SDS011;1322;53.256;10.386;2022-09-30T07:44:38;13.90;;;12.37;;
2624;SDS011;1322;53.256;10.386;2022-09-30T07:47:06;13.97;;;12.40;;
2624;SDS011;1322;53.256;10.386;2022-09-30T07:49:33;16.67;;;13.37;;
2624;SDS011;1322;53.256;10.386;2022-09-30T07:51:59;15.73;;;13.70;;
2624;SDS011;1322;53.256;10.386;2022-09-30T07:54:26;18.50;;;14.70;;
2624;SDS011;1322;53.256;10.386;2022-09-30T07:56:53;16.23;;;13.73;;
2624;SDS011;1322;53.256;10.386;2022-09-30T07:59:19;19.47;;;14.00;;
2624;SDS011;1322;53.256;10.386;2022-09-30T08:01:45;24.30;;;15.50;;
2624;SDS011;1322;53.256;10.386;2022-09-30T08:04:12;17.13;;;14.77;;
2624;SDS011;1322;53.256;10.386;2022-09-30T08:06:40;17.87;;;16.00;;
2624;SDS011;1322;53.256;10.386;2022-09-30T08:09:09;22.70;;;16.20;;
2624;SDS011;1322;53.256;10.386;2022-09-30T08:11:35;35.83;;;28.67;;
2624;SDS011;1322;53.256;10.386;2022-09-30T08:14:02;19.77;;;17.23;;
2624;SDS011;1322;53.256;10.386;2022-09-30T08:16:29;18.37;;;16.47;;
2624;SDS011;1322;53.256;10.386;2022-09-30T08:18:55;23.17;;;17.20;;
2624;SDS011;1322;53.256;10.386;2022-09-30T08:21:22;28.77;;;22.10;;
2624;SDS011;1322;53.256;10.386;2022-09-30T08:23:50;18.80;;;16.83;;
2624;SDS011;1322;53.256;10.386;2022-09-30T08:26:15;18.83;;;16.63;;
2624;SDS011;1322;53.256;10.386;2022-09-30T08:28:41;18.67;;;16.53;;
2624;SDS011;1322;53.256;10.386;2022-09-30T08:31:12;19.20;;;17.30;;
2624;SDS011;1322;53.256;10.386;2022-09-30T08:33:40;18.57;;;16.60;;
2624;SDS011;1322;53.256;10.386;2022-09-30T08:36:07;16.37;;;14.73;;
2624;SDS011;1322;53.256;10.386;2022-09-30T08:38:34;17.27;;;15.50;;
2624;SDS011;1322;53.256;10.386;2022-09-30T08:41:09;18.17;;;16.20;;
2624;SDS011;1322;53.256;10.386;2022-09-30T08:46:57;19.37;;;17.43;;
2624;SDS011;1322;53.256;10.386;2022-09-30T08:52:19;16.57;;;14.87;;
2624;SDS011;1322;53.256;10.386;2022-09-30T08:54:49;20.33;;;15.17;;
2624;SDS011;1322;53.256;10.386;2022-09-30T08:57:17;15.83;;;14.13;;
2624;SDS011;1322;53.256;10.386;2022-09-30T08:59:48;15.60;;;14.03;;
2624;SDS011;1322;53.256;10.386;2022-09-30T09:05:02;18.17;;;13.70;;
2624;SDS011;1322;53.256;10.386;2022-09-30T09:10:16;15.00;;;13.30;;
2624;SDS011;1322;53.256;10.386;2022-09-30T09:23:57;13.63;;;10.67;;
2624;SDS011;1322;53.256;10.386;2022-09-30T09:26:26;18.93;;;9.10;;
2624;SDS011;1322;53.256;10.386;2022-09-30T09:31:49;9.77;;;8.80;;
2624;SDS011;1322;53.256;10.386;2022-09-30T09:34:15;8.60;;;7.33;;
2624;SDS011;1322;53.256;10.386;2022-09-30T09:39:29;9.27;;;6.93;;
2624;SDS011;1322;53.256;10.386;2022-09-30T09:42:24;8.80;;;6.20;;
2624;SDS011;1322;53.256;10.386;2022-09-30T09:47:49;6.67;;;5.93;;
2624;SDS011;1322;53.256;10.386;2022-09-30T09:50:31;7.03;;;5.30;;
2624;SDS011;1322;53.256;10.386;2022-09-30T09:53:12;8.23;;;5.77;;
2624;SDS011;1322;53.256;10.386;2022-09-30T09:55:47;7.73;;;5.50;;
2624;SDS011;1322;53.256;10.386;2022-09-30T09:58:18;7.73;;;6.43;;
2624;SDS011;1322;53.256;10.386;2022-09-30T10:00:44;7.00;;;5.57;;
2624;SDS011;1322;53.256;10.386;2022-09-30T10:03:17;4.90;;;4.40;;
2624;SDS011;1322;53.256;10.386;2022-09-30T10:05:57;5.43;;;4.20;;
2624;SDS011;1322;53.256;10.386;2022-09-30T10:08:28;5.13;;;4.43;;
2624;SDS011;1322;53.256;10.386;2022-09-30T10:11:06;4.77;;;4.37;;
2624;SDS011;1322;53.256;10.386;2022-09-30T10:13:45;4.90;;;3.67;;
2624;SDS011;1322;53.256;10.386;2022-09-30T10:16:24;5.50;;;3.93;;
2624;SDS011;1322;53.256;10.386;2022-09-30T10:19:00;4.60;;;3.90;;
2624;SDS011;1322;53.256;10.386;2022-09-30T10:21:29;4.40;;;3.13;;
2624;SDS011;1322;53.256;10.386;2022-09-30T10:23:54;5.57;;;4.57;;
2624;SDS011;1322;53.256;10.386;2022-09-30T10:26:25;3.70;;;2.60;;
2624;SDS011;1322;53.256;10.386;2022-09-30T10:28:56;7.73;;;3.30;;
2624;SDS011;1322;53.256;10.386;2022-09-30T10:36:43;4.20;;;3.80;;
2624;SDS011;1322;53.256;10.386;2022-09-30T10:47:53;5.90;;;2.93;;
2624;SDS011;1322;53.256;10.386;2022-09-30T10:50:21;4.10;;;3.27;;
2624;SDS011;1322;53.256;10.386;2022-09-30T10:52:58;6.03;;;2.50;;
2624;SDS011;1322;53.256;10.386;2022-09-30T10:55:44;4.20;;;1.97;;
2624;SDS011;1322;53.256;10.386;2022-09-30T11:01:20;3.10;;;1.87;;
2624;SDS011;1322;53.256;10.386;2022-09-30T11:04:08;2.90;;;2.10;;
2624;SDS011;1322;53.256;10.386;2022-09-30T11:06:43;2.13;;;1.83;;
2624;SDS011;1322;53.256;10.386;2022-09-30T11:09:19;5.60;;;2.10;;
2624;SDS011;1322;53.256;10.386;2022-09-30T11:11:54;2.73;;;2.20;;
2624;SDS011;1322;53.256;10.386;2022-09-30T11:14:34;7.33;;;3.90;;
2624;SDS011;1322;53.256;10.386;2022-09-30T11:20:18;3.50;;;2.57;;
2624;SDS011;1322;53.256;10.386;2022-09-30T11:22:55;2.60;;;2.20;;
2624;SDS011;1322;53.256;10.386;2022-09-30T11:28:14;2.20;;;1.80;;
2624;SDS011;1322;53.256;10.386;2022-09-30T11:39:03;3.93;;;2.43;;
2624;SDS011;1322;53.256;10.386;2022-09-30T11:41:34;4.07;;;2.60;;
2624;SDS011;1322;53.256;10.386;2022-09-30T11:44:19;5.53;;;2.30;;
2624;SDS011;1322;53.256;10.386;2022-09-30T11:47:06;5.13;;;2.20;;
2624;SDS011;1322;53.256;10.386;2022-09-30T12:00:15;7.53;;;2.83;;
2624;SDS011;1322;53.256;10.386;2022-09-30T12:07:45;3.90;;;2.50;;
2624;SDS011;1322;53.256;10.386;2022-09-30T12:10:38;3.43;;;2.30;;
2624;SDS011;1322;53.256;10.386;2022-09-30T12:13:17;3.33;;;2.37;;
2624;SDS011;1322;53.256;10.386;2022-09-30T12:15:49;5.97;;;2.70;;
2624;SDS011;1322;53.256;10.386;2022-09-30T12:18:29;5.20;;;2.10;;
2624;SDS011;1322;53.256;10.386;2022-09-30T12:21:19;3.27;;;2.47;;
2624;SDS011;1322;53.256;10.386;2022-09-30T12:23:49;6.30;;;2.80;;
2624;SDS011;1322;53.256;10.386;2022-09-30T12:26:23;3.60;;;2.10;;
2624;SDS011;1322;53.256;10.386;2022-09-30T12:28:51;4.63;;;2.90;;
2624;SDS011;1322;53.256;10.386;2022-09-30T12:43:19;2.43;;;2.00;;
2624;SDS011;1322;53.256;10.386;2022-09-30T12:46:14;9.43;;;2.50;;
2624;SDS011;1322;53.256;10.386;2022-09-30T12:49:00;2.77;;;2.10;;
2624;SDS011;1322;53.256;10.386;2022-09-30T12:51:31;4.60;;;2.70;;
2624;SDS011;1322;53.256;10.386;2022-09-30T12:54:03;3.17;;;2.77;;
2624;SDS011;1322;53.256;10.386;2022-09-30T12:56:37;3.10;;;2.70;;
2624;SDS011;1322;53.256;10.386;2022-09-30T12:59:07;4.77;;;3.73;;
2624;SDS011;1322;53.256;10.386;2022-09-30T13:01:37;2.70;;;2.30;;
2624;SDS011;1322;53.256;10.386;2022-09-30T13:09:21;3.97;;;3.10;;
2624;SDS011;1322;53.256;10.386;2022-09-30T13:17:00;3.40;;;2.30;;
2624;SDS011;1322;53.256;10.386;2022-09-30T13:19:42;4.37;;;2.60;;
2624;SDS011;1322;53.256;10.386;2022-09-30T13:25:02;4.30;;;2.57;;
2624;SDS011;1322;53.256;10.386;2022-09-30T13:32:44;3.57;;;3.03;;
2624;SDS011;1322;53.256;10.386;2022-09-30T13:41:02;3.23;;;2.93;;
2624;SDS011;1322;53.256;10.386;2022-09-30T13:43:41;2.90;;;2.40;;
2624;SDS011;1322;53.256;10.386;2022-09-30T13:46:27;2.30;;;2.10;;
2624;SDS011;1322;53.256;10.386;2022-09-30T13:49:00;3.03;;;2.30;;
2624;SDS011;1322;53.256;10.386;2022-09-30T13:51:30;3.47;;;2.53;;
2624;SDS011;1322;53.256;10.386;2022-09-30T13:53:58;3.17;;;2.33;;
2624;SDS011;1322;53.256;10.386;2022-09-30T13:56:31;5.10;;;2.67;;
2624;SDS011;1322;53.256;10.386;2022-09-30T14:12:39;3.00;;;2.20;;
2624;SDS011;1322;53.256;10.386;2022-09-30T14:15:48;3.17;;;2.40;;
2624;SDS011;1322;53.256;10.386;2022-09-30T14:21:36;3.00;;;2.37;;
2624;SDS011;1322;53.256;10.386;2022-09-30T14:24:12;4.13;;;2.60;;
2624;SDS011;1322;53.256;10.386;2022-09-30T14:35:11;4.10;;;2.30;;
2624;SDS011;1322;53.256;10.386;2022-09-30T14:37:43;4.63;;;2.50;;
2624;SDS011;1322;53.256;10.386;2022-09-30T14:40:16;3.90;;;2.83;;
2624;SDS011;1322;53.256;10.386;2022-09-30T14:42:45;2.90;;;2.30;;
2624;SDS011;1322;53.256;10.386;2022-09-30T14:45:17;8.33;;;3.20;;
2624;SDS011;1322;53.256;10.386;2022-09-30T14:47:50;2.43;;;2.20;;
2624;SDS011;1322;53.256;10.386;2022-09-30T14:50:21;4.63;;;2.30;;
2624;SDS011;1322;53.256;10.386;2022-09-30T14:52:50;5.00;;;2.83;;
2624;SDS011;1322;53.256;10.386;2022-09-30T14:55:22;3.33;;;3.03;;
2624;SDS011;1322;53.256;10.386;2022-09-30T14:57:50;6.10;;;2.43;;
2624;SDS011;1322;53.256;10.386;2022-09-30T15:02:47;3.27;;;2.53;;
2624;SDS011;1322;53.256;10.386;2022-09-30T15:05:13;3.90;;;2.30;;
2624;SDS011;1322;53.256;10.386;2022-09-30T15:07:41;3.57;;;2.63;;
2624;SDS011;1322;53.256;10.386;2022-09-30T15:10:17;2.80;;;2.10;;
2624;SDS011;1322;53.256;10.386;2022-09-30T15:12:46;4.73;;;2.10;;
2624;SDS011;1322;53.256;10.386;2022-09-30T15:15:25;4.90;;;2.40;;
2624;SDS011;1322;53.256;10.386;2022-09-30T15:17:57;4.70;;;2.30;;
2624;SDS011;1322;53.256;10.386;2022-09-30T15:22:48;3.30;;;1.93;;
2624;SDS011;1322;53.256;10.386;2022-09-30T15:25:17;2.53;;;2.10;;
2624;SDS011;1322;53.256;10.386;2022-09-30T15:27:45;3.57;;;2.13;;
2624;SDS011;1322;53.256;10.386;2022-09-30T15:32:41;4.20;;;3.07;;
2624;SDS011;1322;53.256;10.386;2022-09-30T15:35:11;4.00;;;2.90;;
2624;SDS011;1322;53.256;10.386;2022-09-30T15:37:44;4.30;;;3.37;;
2624;SDS011;1322;53.256;10.386;2022-09-30T15:40:20;2.93;;;2.37;;
2624;SDS011;1322;53.256;10.386;2022-09-30T15:43:07;3.63;;;2.80;;
2624;SDS011;1322;53.256;10.386;2022-09-30T15:45:36;3.07;;;2.63;;
2624;SDS011;1322;53.256;10.386;2022-09-30T15:53:16;5.73;;;3.10;;
2624;SDS011;1322;53.256;10.386;2022-09-30T15:55:44;4.47;;;3.00;;
2624;SDS011;1322;53.256;10.386;2022-09-30T16:00:50;3.73;;;3.43;;
2624;SDS011;1322;53.256;10.386;2022-09-30T16:03:33;8.10;;;7.30;;
2624;SDS011;1322;53.256;10.386;2022-09-30T16:06:06;5.63;;;5.07;;
2624;SDS011;1322;53.256;10.386;2022-09-30T16:08:42;6.97;;;4.40;;
2624;SDS011;1322;53.256;10.386;2022-09-30T16:11:16;3.70;;;3.13;;
2624;SDS011;1322;53.256;10.386;2022-09-30T16:13:45;10.43;;;9.47;;
2624;SDS011;1322;53.256;10.386;2022-09-30T16:16:21;7.90;;;7.20;;
2624;SDS011;1322;53.256;10.386;2022-09-30T16:18:50;6.87;;;3.93;;
2624;SDS011;1322;53.256;10.386;2022-09-30T16:21:35;7.00;;;5.53;;
2624;SDS011;1322;53.256;10.386;2022-09-30T16:29:16;10.20;;;7.00;;
2624;SDS011;1322;53.256;10.386;2022-09-30T16:31:42;3.80;;;3.33;;
2624;SDS011;1322;53.256;10.386;2022-09-30T16:34:28;11.73;;;9.00;;
2624;SDS011;1322;53.256;10.386;2022-09-30T16:37:02;14.20;;;12.20;;
2624;SDS011;1322;53.256;10.386;2022-09-30T16:39:34;12.27;;;10.53;;
2624;SDS011;1322;53.256;10.386;2022-09-30T16:42:00;8.90;;;6.67;;
2624;SDS011;1322;53.256;10.386;2022-09-30T16:44:28;27.50;;;22.77;;
2624;SDS011;1322;53.256;10.386;2022-09-30T16:46:58;43.17;;;34.30;;
2624;SDS011;1322;53.256;10.386;2022-09-30T16:49:24;24.87;;;22.20;;
2624;SDS011;1322;53.256;10.386;2022-09-30T16:51:50;13.57;;;10.57;;
2624;SDS011;1322;53.256;10.386;2022-09-30T16:54:15;12.40;;;10.27;;
2624;SDS011;1322;53.256;10.386;2022-09-30T16:56:41;8.87;;;7.10;;
2624;SDS011;1322;53.256;10.386;2022-09-30T16:59:12;6.17;;;4.20;;
2624;SDS011;1322;53.256;10.386;2022-09-30T17:01:39;4.50;;;4.10;;
2624;SDS011;1322;53.256;10.386;2022-09-30T17:04:05;5.90;;;4.57;;
2624;SDS011;1322;53.256;10.386;2022-09-30T17:06:32;8.13;;;6.87;;
2624;SDS011;1322;53.256;10.386;2022-09-30T17:08:59;14.73;;;11.23;;
2624;SDS011;1322;53.256;10.386;2022-09-30T17:11:28;19.43;;;13.43;;
2624;SDS011;1322;53.256;10.386;2022-09-30T17:13:56;19.90;;;16.60;;
2624;SDS011;1322;53.256;10.386;2022-09-30T17:16:23;13.20;;;9.50;;
2624;SDS011;1322;53.256;10.386;2022-09-30T17:18:50;7.27;;;6.00;;
2624;SDS011;1322;53.256;10.386;2022-09-30T17:21:19;6.57;;;4.60;;
2624;SDS011;1322;53.256;10.386;2022-09-30T17:23:46;5.10;;;4.60;;
2624;SDS011;1322;53.256;10.386;2022-09-30T17:26:12;6.00;;;4.53;;
2624;SDS011;1322;53.256;10.386;2022-09-30T17:28:38;8.23;;;4.50;;
2624;SDS011;1322;53.256;10.386;2022-09-30T17:31:04;5.67;;;5.07;;
2624;SDS011;1322;53.256;10.386;2022-09-30T17:33:32;9.93;;;5.53;;
2624;SDS011;1322;53.256;10.386;2022-09-30T17:36:04;7.30;;;5.30;;
2624;SDS011;1322;53.256;10.386;2022-09-30T17:38:31;8.00;;;6.00;;
2624;SDS011;1322;53.256;10.386;2022-09-30T17:40:58;6.80;;;5.20;;
2624;SDS011;1322;53.256;10.386;2022-09-30T17:43:43;9.73;;;5.50;;
2624;SDS011;1322;53.256;10.386;2022-09-30T17:46:13;6.20;;;5.27;;
2624;SDS011;1322;53.256;10.386;2022-09-30T17:48:42;5.83;;;5.20;;
2624;SDS011;1322;53.256;10.386;2022-09-30T17:51:10;8.43;;;5.73;;
2624;SDS011;1322;53.256;10.386;2022-09-30T17:53:36;6.27;;;5.60;;
2624;SDS011;1322;53.256;10.386;2022-09-30T17:56:03;8.07;;;5.60;;
2624;SDS011;1322;53.256;10.386;2022-09-30T17:58:34;8.57;;;7.07;;
2624;SDS011;1322;53.256;10.386;2022-09-30T18:01:06;10.90;;;6.00;;
2624;SDS011;1322;53.256;10.386;2022-09-30T18:03:35;7.67;;;5.93;;
2624;SDS011;1322;53.256;10.386;2022-09-30T18:06:01;9.60;;;5.90;;
2624;SDS011;1322;53.256;10.386;2022-09-30T18:08:27;7.40;;;5.83;;
2624;SDS011;1322;53.256;10.386;2022-09-30T18:10:53;8.07;;;6.60;;
2624;SDS011;1322;53.256;10.386;2022-09-30T18:13:21;11.33;;;6.87;;
2624;SDS011;1322;53.256;10.386;2022-09-30T18:15:50;8.10;;;6.60;;
2624;SDS011;1322;53.256;10.386;2022-09-30T18:18:16;8.00;;;7.20;;
2624;SDS011;1322;53.256;10.386;2022-09-30T18:20:45;6.53;;;5.70;;
2624;SDS011;1322;53.256;10.386;2022-09-30T18:23:12;6.80;;;6.10;;
2624;SDS011;1322;53.256;10.386;2022-09-30T18:25:39;8.67;;;7.83;;
2624;SDS011;1322;53.256;10.386;2022-09-30T18:28:08;7.33;;;6.20;;
2624;SDS011;1322;53.256;10.386;2022-09-30T18:30:34;9.60;;;6.30;;
2624;SDS011;1322;53.256;10.386;2022-09-30T18:33:01;7.97;;;6.00;;
2624;SDS011;1322;53.256;10.386;2022-09-30T18:35:28;8.50;;;6.57;;
2624;SDS011;1322;53.256;10.386;2022-09-30T18:37:54;8.50;;;7.60;;
2624;SDS011;1322;53.256;10.386;2022-09-30T18:40:20;9.40;;;7.30;;
2624;SDS011;1322;53.256;10.386;2022-09-30T18:42:51;8.80;;;7.27;;
2624;SDS011;1322;53.256;10.386;2022-09-30T18:45:20;7.90;;;7.10;;
2624;SDS011;1322;53.256;10.386;2022-09-30T18:47:46;9.73;;;6.93;;